Nearby METAR Reports

 

KCPC - Whiteville, North Carolina, USA
Distance from station: NNE 17mi, 28km
Updated: 12/06/2019 11:57pm
unable to load KCPC data RC=
unable to load KCPC data RC=
 
KCRE - North Myrtle Bea, South Carolina, USA
Distance from station: SSE 19mi, 31km
Updated: 12/06/2019 11:53pm
Partly cloudy
Partly cloudy
 Wind from NE
Wind: NE 3 mph , 6 km/h
Temperature: 54°F , 12°C
Dew Point: 52°F , 11°C
Humidity: 94%
Barometer: 30.16 inHg , 1021.3 hPa
Clouds: Partly cloudy
Visibility: 10 miles , 16 km
Cloud details: Partly cloudy 4200 ft
2019/12/07 04:53 KCRE 070453Z AUTO 05003KT 10SM SCT042 12/11 A3016 RMK AO1 RAB02E22 SLP215 P0000 T01170106 401940006
 
KHYW - Conway-Horry Cty, South Carolina, USA
Distance from station: SW 22mi, 35km
Updated: 12/06/2019 11:35pm
Overcast
Overcast
 Wind from calm
Wind: Calm
Temperature: 50°F , 10°C
Dew Point: 50°F , 10°C
Humidity: 100%
Barometer: 30.18 inHg , 1022 hPa
Clouds: Overcast
Visibility: 10 miles , 16 km
Cloud details: Partly cloudy 3900 ft
Partly cloudy 4600 ft
Overcast 9500 ft
2019/12/07 04:35 KHYW 070435Z AUTO 00000KT 10SM SCT039 SCT046 OVC095 10/10 A3018 RMK AO2
KMAO - Marion, South Carolina, USA
Distance from station: WNW 28mi, 45km
Updated: 12/06/2019 11:58pm
unable to load KMAO data RC=
unable to load KMAO data RC=
 
 
KMYR - Myrtle Beach, South Carolina, USA
Distance from station: S 28mi, 45km
Updated: 12/06/2019 11:56pm
Overcast
Overcast
 Wind from calm
Wind: Calm
Temperature: 54°F , 12°C
Dew Point: 52°F , 11°C
Humidity: 94%
Barometer: 30.17 inHg , 1021.7 hPa
Clouds: Overcast
Visibility: 10 miles , 16 km
Cloud details: Few Clouds 4000 ft
Overcast 9000 ft
2019/12/07 04:56 KMYR 070456Z AUTO 00000KT 10SM FEW040 OVC090 12/11 A3017 RMK AO2 SLP217 T01170106 401890017
KLBT - Lumberton, North Carolina, USA
Distance from station: NNW 39mi, 62km
Updated: 03/28/2019 9:55am
NOT Current

 
2019/03/28 13:55 KLBT 281355Z MKT MSM M M M M A0000 M M RMK TEST
 
KSUT - Southport, North Carolina, USA
Distance from station: E 46mi, 74km
Updated: 12/06/2019 11:55pm
Mostly cloudy
Mostly cloudy
 Wind from calm
Wind: Calm
Temperature: 52°F , 11°C
Dew Point: 50°F , 10°C
Humidity: 94%
Barometer: 30.18 inHg , 1022 hPa
Clouds: Mostly cloudy
Visibility: 10 miles , 16 km
Cloud details: Mostly cloudy 8000 ft
2019/12/07 04:55 KSUT 070455Z AUTO 00000KT 10SM BKN080 11/10 A3018 RMK AO2 P0001 T01130102
KFLO - Florence, South Carolina, USA
Distance from station: W 50mi, 81km
Updated: 12/06/2019 11:53pm
Overcast
Overcast
 Wind from calm
Wind: Calm
Temperature: 48°F , 9°C
Dew Point: 46°F , 8°C
Humidity: 94%
Barometer: 30.19 inHg , 1022.4 hPa
Clouds: Overcast
Visibility: 10 miles , 16 km
Cloud details: Overcast 9500 ft
2019/12/07 04:53 KFLO 070453Z AUTO 00000KT 10SM OVC095 09/08 A3019 RMK AO2 SLP220 T00940078 401830006